Terminal Aerodrome Forecast
Issued by NWS Binghamton, NY

Home | Current Version | Previous Version | Text Only | Print | Product List | Glossary On
Versions: 1 2 3 4 5 6 7 8 9 10 11 12 13 14 15 16 17
000
FTUS41 KBGM 262341
TAFSYR
TAF
KSYR 262341Z 2700/2724 23005KT P6SM SCT040 BKN080
      TEMPO 2700/2701 -TSRA OVC040CB
     FM270300 18004KT P6SM SCT080
     FM271400 24007KT P6SM SCT050 BKN080
     FM271600 27010KT P6SM -SHRA BKN050=

USA.gov is the U.S. government's official web portal to all federal, state and local government web resources and services.